Time;durP1;ratioP1;P1;durP2;ratioP2;P2;SDS_P1;SDS_P2;PMS_P1;PMS_P2;Temp;Humidity;BMP_temperature;BMP_pressure;BME280_temperature;BME280_humidity;BME280_pressure;Samples;Min_cycle;Max_cycle;Signal;HPM_P1;HPM_P2
2023/03/12 00:01:33;;;;;;;14.23;5.38;;;0.70;99.90;;;;;;5020939;28;20041;-55
2023/03/12 00:04:03;;;;;;;9.00;5.85;;;0.70;99.90;;;;;;5020506;28;20053;-57
2023/03/12 00:06:29;;;;;;;12.10;5.43;;;0.70;99.90;;;;;;5015090;28;20041;-55
2023/03/12 00:08:58;;;;;;;10.30;4.85;;;0.70;99.90;;;;;;5005113;28;20046;-54
2023/03/12 00:11:23;;;;;;;8.60;4.40;;;0.70;99.90;;;;;;5005604;28;20138;-56
2023/03/12 00:13:51;;;;;;;7.28;4.53;;;0.70;99.90;;;;;;5003560;28;20034;-53
2023/03/12 00:16:17;;;;;;;8.50;4.70;;;0.70;99.90;;;;;;5025679;28;20447;-53
2023/03/12 00:18:46;;;;;;;9.45;4.43;;;0.70;99.90;;;;;;5022783;28;20040;-56
2023/03/12 00:21:12;;;;;;;11.30;4.10;;;0.70;99.90;;;;;;5020414;28;20045;-54
2023/03/12 00:23:37;;;;;;;9.52;4.18;;;0.80;99.90;;;;;;5024238;28;20092;-56
2023/03/12 00:26:07;;;;;;;9.10;4.53;;;0.70;99.90;;;;;;5019226;28;20064;-54
2023/03/12 00:28:33;;;;;;;9.88;5.38;;;0.70;99.90;;;;;;5007393;28;20037;-56
2023/03/12 00:31:12;;;;;;;6.93;3.78;;;0.70;99.90;;;;;;5001921;28;20077;-57
2023/03/12 00:33:37;;;;;;;7.18;4.45;;;0.70;99.90;;;;;;5020764;28;20045;-55
2023/03/12 00:36:03;;;;;;;8.10;4.40;;;0.70;99.90;;;;;;5018236;28;20145;-54
2023/03/12 00:38:29;;;;;;;8.68;4.20;;;0.70;99.90;;;;;;5020668;28;20053;-57
2023/03/12 00:40:58;;;;;;;7.80;4.65;;;0.70;99.90;;;;;;5003300;28;20102;-55
2023/03/12 00:43:23;;;;;;;11.95;6.40;;;0.70;99.90;;;;;;5022136;28;20400;-56
2023/03/12 00:45:49;;;;;;;9.63;5.10;;;0.70;99.90;;;;;;5026647;28;20037;-52
2023/03/12 00:48:15;;;;;;;6.90;5.07;;;0.70;99.90;;;;;;5006859;28;20075;-53
2023/03/12 00:50:40;;;;;;;11.07;5.00;;;0.70;99.90;;;;;;5007285;28;20049;-55
2023/03/12 00:53:06;;;;;;;8.75;4.93;;;0.70;99.90;;;;;;5018335;28;20060;-58
2023/03/12 00:55:35;;;;;;;10.35;5.38;;;0.70;99.90;;;;;;5022082;28;20041;-54
2023/03/12 00:58:03;;;;;;;8.48;5.45;;;0.70;99.90;;;;;;5025223;28;20154;-56
2023/03/12 01:00:29;;;;;;;9.07;4.50;;;0.70;99.90;;;;;;5010935;28;20049;-52
2023/03/12 01:02:55;;;;;;;7.65;4.90;;;0.70;99.90;;;;;;5007076;28;20497;-56
2023/03/12 01:05:21;;;;;;;8.32;4.90;;;0.60;99.90;;;;;;5003009;28;20049;-54
2023/03/12 01:07:49;;;;;;;10.00;5.93;;;0.60;99.90;;;;;;5023577;28;20072;-56
2023/03/12 01:10:17;;;;;;;8.75;4.93;;;0.60;99.90;;;;;;5020761;28;20045;-56
2023/03/12 01:12:43;;;;;;;10.60;5.05;;;0.60;99.90;;;;;;5006140;28;20499;-56
2023/03/12 01:15:12;;;;;;;7.50;4.38;;;0.60;99.90;;;;;;5024519;28;20124;-52
2023/03/12 01:17:41;;;;;;;8.80;4.50;;;0.60;99.90;;;;;;5004515;28;20163;-55
2023/03/12 01:20:08;;;;;;;6.78;4.28;;;0.60;99.90;;;;;;5024258;28;20045;-52
2023/03/12 01:22:34;;;;;;;5.93;4.13;;;0.60;99.90;;;;;;5024879;28;20033;-55
2023/03/12 01:25:00;;;;;;;12.10;4.13;;;0.50;99.90;;;;;;5023107;28;20411;-54
2023/03/12 01:27:26;;;;;;;11.13;5.07;;;0.60;99.90;;;;;;5025867;28;20048;-53
2023/03/12 01:29:51;;;;;;;9.13;4.80;;;0.60;99.90;;;;;;5027483;28;20126;-55
2023/03/12 01:32:17;;;;;;;10.20;4.90;;;0.60;99.90;;;;;;5022292;28;20038;-53
2023/03/12 01:34:46;;;;;;;9.63;4.95;;;0.60;99.90;;;;;;5025552;28;20040;-54
2023/03/12 01:37:12;;;;;;;29.63;6.57;;;0.70;99.90;;;;;;5025552;28;20049;-57
2023/03/12 01:39:38;;;;;;;10.23;4.40;;;0.70;99.90;;;;;;5022431;28;20059;-52
2023/03/12 01:42:04;;;;;;;7.53;4.70;;;0.70;99.90;;;;;;5020904;28;20045;-52
2023/03/12 01:44:30;;;;;;;7.40;4.63;;;0.70;99.90;;;;;;5024242;28;20087;-55
2023/03/12 01:46:55;;;;;;;9.43;4.80;;;0.80;99.90;;;;;;5015241;28;20038;-55
2023/03/12 01:49:33;;;;;;;8.35;4.75;;;0.80;99.90;;;;;;5021953;28;21164;-56
2023/03/12 01:52:09;;;;;;;9.15;5.07;;;0.80;99.90;;;;;;5019291;28;20562;-56
2023/03/12 01:54:44;;;;;;;9.30;4.90;;;0.80;99.90;;;;;;5022512;28;20045;-56
2023/03/12 01:57:14;;;;;;;9.65;5.47;;;0.90;99.90;;;;;;5023908;28;20397;-55
2023/03/12 01:59:48;;;;;;;8.45;5.13;;;0.90;99.90;;;;;;4996697;28;20045;-53
2023/03/12 02:02:15;;;;;;;9.65;5.03;;;0.90;99.90;;;;;;5008919;28;20136;-56
2023/03/12 02:04:43;;;;;;;13.13;5.50;;;0.90;99.90;;;;;;5016155;28;20353;-54
2023/03/12 02:07:12;;;;;;;10.40;5.43;;;0.90;99.90;;;;;;5008623;28;20184;-56
2023/03/12 02:09:41;;;;;;;8.90;5.35;;;1.00;99.90;;;;;;5020523;28;20057;-56
2023/03/12 02:12:07;;;;;;;12.65;5.65;;;1.00;99.90;;;;;;5004058;28;20595;-55
2023/03/12 02:14:33;;;;;;;9.30;5.00;;;1.00;99.90;;;;;;5007075;28;20408;-54
2023/03/12 02:16:59;;;;;;;9.45;5.13;;;1.00;99.90;;;;;;5015857;28;20053;-54
2023/03/12 02:19:37;;;;;;;16.60;6.85;;;1.10;99.90;;;;;;5013010;28;20048;-55
2023/03/12 02:22:03;;;;;;;10.05;4.93;;;1.10;99.90;;;;;;5019087;28;20412;-57
2023/03/12 02:24:56;;;;;;;11.95;5.05;;;1.10;99.90;;;;;;5019291;28;20151;-53
2023/03/12 02:27:22;;;;;;;9.63;4.90;;;1.10;99.90;;;;;;5020143;28;20179;-55
2023/03/12 02:29:48;;;;;;;8.55;5.05;;;1.10;99.90;;;;;;5016934;28;20041;-57
2023/03/12 02:32:26;;;;;;;10.35;5.30;;;1.20;99.90;;;;;;5023545;28;20550;-53
2023/03/12 02:34:52;;;;;;;9.90;4.47;;;1.20;99.90;;;;;;5003489;28;20045;-54
2023/03/12 02:37:18;;;;;;;12.13;5.15;;;1.20;99.90;;;;;;5027629;28;20044;-54
2023/03/12 02:39:55;;;;;;;9.43;4.55;;;1.20;99.90;;;;;;5011564;28;20053;-54
2023/03/12 02:42:22;;;;;;;7.43;4.15;;;1.20;99.90;;;;;;5022937;28;20813;-53
2023/03/12 02:44:48;;;;;;;10.50;4.68;;;1.30;99.90;;;;;;5001735;28;20179;-55
2023/03/12 02:47:14;;;;;;;7.80;4.57;;;1.30;99.90;;;;;;5026246;28;20544;-56
2023/03/12 02:49:40;;;;;;;10.25;4.50;;;1.30;99.90;;;;;;5001122;28;20036;-57
2023/03/12 02:52:06;;;;;;;8.45;5.07;;;1.30;99.90;;;;;;5024542;28;20547;-52
2023/03/12 02:54:32;;;;;;;12.95;5.35;;;1.30;99.90;;;;;;4993909;28;20042;-53
2023/03/12 02:56:57;;;;;;;7.60;4.20;;;1.30;99.90;;;;;;5021451;28;20058;-53
2023/03/12 02:59:26;;;;;;;8.45;4.68;;;1.40;99.90;;;;;;5009138;28;20152;-56
2023/03/12 03:01:57;;;;;;;7.65;4.03;;;1.40;99.90;;;;;;5022716;28;20042;-52
2023/03/12 03:04:24;;;;;;;8.52;4.70;;;1.40;99.90;;;;;;5024624;28;20045;-56
2023/03/12 03:06:50;;;;;;;12.15;4.63;;;1.40;99.90;;;;;;5021532;28;20408;-51
2023/03/12 03:09:16;;;;;;;8.57;4.82;;;1.40;99.90;;;;;;5010131;28;20038;-54
2023/03/12 03:11:42;;;;;;;9.77;4.82;;;1.40;99.90;;;;;;5026105;28;20105;-53
2023/03/12 03:14:09;;;;;;;8.20;5.00;;;1.40;99.90;;;;;;5024219;28;20040;-55
2023/03/12 03:16:35;;;;;;;9.52;5.55;;;1.40;99.90;;;;;;5021388;28;20041;-54
2023/03/12 03:19:01;;;;;;;7.85;4.60;;;1.50;99.90;;;;;;5023622;28;20511;-52
2023/03/12 03:21:26;;;;;;;9.20;5.03;;;1.50;99.90;;;;;;5010919;28;20037;-55
2023/03/12 03:23:52;;;;;;;8.45;4.43;;;1.50;99.90;;;;;;5021866;28;20488;-56
2023/03/12 03:26:20;;;;;;;7.82;4.70;;;1.50;99.90;;;;;;5009625;28;20056;-53
2023/03/12 03:28:45;;;;;;;9.13;4.70;;;1.50;99.90;;;;;;5026368;28;20447;-54
2023/03/12 03:31:11;;;;;;;8.68;5.28;;;1.50;99.90;;;;;;5010194;28;20037;-56
2023/03/12 03:33:42;;;;;;;9.77;5.20;;;1.50;99.90;;;;;;4991679;28;20046;-56
2023/03/12 03:36:08;;;;;;;8.90;4.70;;;1.50;99.90;;;;;;5027191;28;20124;-54
2023/03/12 03:38:35;;;;;;;6.85;4.25;;;1.50;99.90;;;;;;5006730;28;20041;-53
2023/03/12 03:41:04;;;;;;;8.63;4.53;;;1.60;99.90;;;;;;5019655;28;20199;-56
2023/03/12 03:43:30;;;;;;;8.13;4.28;;;1.60;99.90;;;;;;5024106;28;20125;-56
2023/03/12 03:46:04;;;;;;;11.60;3.97;;;1.60;99.90;;;;;;5006984;28;20187;-52
2023/03/12 03:48:31;;;;;;;8.98;3.50;;;1.60;99.90;;;;;;5014663;28;20410;-53
2023/03/12 03:51:01;;;;;;;7.53;3.70;;;1.60;99.90;;;;;;5014787;28;20475;-53
2023/03/12 03:53:26;;;;;;;8.30;3.90;;;1.70;99.90;;;;;;5021920;28;20037;-54
2023/03/12 03:55:52;;;;;;;8.05;3.22;;;1.60;99.90;;;;;;5012143;28;20053;-54
2023/03/12 03:58:18;;;;;;;9.68;3.78;;;1.70;99.90;;;;;;5020596;28;20049;-56
2023/03/12 04:00:44;;;;;;;9.38;3.97;;;1.60;99.90;;;;;;5027841;28;20033;-56
2023/03/12 04:03:10;;;;;;;9.25;3.78;;;1.60;99.90;;;;;;5003612;28;20102;-56
2023/03/12 04:05:36;;;;;;;13.93;5.43;;;1.70;99.90;;;;;;5021574;28;20297;-56
2023/03/12 04:08:02;;;;;;;6.82;3.70;;;1.70;99.90;;;;;;5020957;28;20045;-55
2023/03/12 04:10:28;;;;;;;9.13;3.63;;;1.70;99.90;;;;;;5007542;28;20045;-54
2023/03/12 04:12:54;;;;;;;5.78;3.72;;;1.70;99.90;;;;;;5015864;28;20468;-52
2023/03/12 04:15:20;;;;;;;5.22;3.28;;;1.70;99.90;;;;;;5019977;28;20187;-55
2023/03/12 04:17:46;;;;;;;7.25;3.70;;;1.80;99.90;;;;;;5014165;28;20426;-52
2023/03/12 04:20:14;;;;;;;9.45;4.32;;;1.70;99.90;;;;;;5017441;28;20038;-53
2023/03/12 04:22:40;;;;;;;7.10;3.67;;;1.80;99.90;;;;;;5013412;28;20037;-55
2023/03/12 04:25:06;;;;;;;8.32;3.80;;;1.80;99.90;;;;;;5018503;28;20371;-55
2023/03/12 04:27:33;;;;;;;6.05;3.55;;;1.80;99.90;;;;;;5022156;28;20048;-53
2023/03/12 04:29:59;;;;;;;9.57;4.28;;;1.80;99.90;;;;;;5004759;28;20041;-52
2023/03/12 04:32:25;;;;;;;7.68;3.67;;;1.80;99.90;;;;;;5019792;28;20413;-55
2023/03/12 04:34:51;;;;;;;8.30;3.58;;;1.80;99.90;;;;;;5031887;28;20041;-55
2023/03/12 04:37:16;;;;;;;9.90;4.03;;;1.80;99.90;;;;;;5007467;28;20057;-55
2023/03/12 04:39:45;;;;;;;6.32;3.33;;;1.80;99.90;;;;;;5017838;28;20097;-55
2023/03/12 04:42:11;;;;;;;8.20;4.00;;;1.80;99.90;;;;;;5010430;28;22094;-52
2023/03/12 04:44:37;;;;;;;7.88;3.70;;;1.80;99.90;;;;;;5027592;28;20196;-53
2023/03/12 04:47:03;;;;;;;10.00;3.95;;;1.80;99.90;;;;;;5016480;28;20037;-56
2023/03/12 04:49:29;;;;;;;13.35;4.30;;;1.80;99.90;;;;;;5017561;28;20045;-58
2023/03/12 04:51:55;;;;;;;5.50;3.53;;;1.80;99.90;;;;;;5019485;28;20107;-55
2023/03/12 04:54:21;;;;;;;6.70;3.92;;;1.80;99.90;;;;;;5025407;28;20487;-55
2023/03/12 04:56:50;;;;;;;8.13;3.40;;;1.80;99.90;;;;;;5016593;28;20049;-57
2023/03/12 04:59:16;;;;;;;10.23;3.80;;;1.80;99.90;;;;;;5021661;28;20511;-57
2023/03/12 05:01:41;;;;;;;8.18;4.43;;;1.80;99.90;;;;;;5023235;28;20084;-57
2023/03/12 05:04:07;;;;;;;7.03;3.30;;;1.80;99.90;;;;;;5015604;28;20089;-53
2023/03/12 05:06:34;;;;;;;7.60;4.03;;;1.80;99.90;;;;;;5019181;28;20041;-53
2023/03/12 05:09:00;;;;;;;7.05;3.33;;;1.80;99.90;;;;;;5035438;28;20052;-55
2023/03/12 05:11:26;;;;;;;7.18;3.58;;;1.80;99.90;;;;;;5022591;28;20045;-52
2023/03/12 05:13:52;;;;;;;11.85;4.45;;;1.80;99.90;;;;;;4987551;28;20041;-56
2023/03/12 05:16:17;;;;;;;10.10;3.72;;;1.80;99.90;;;;;;5021276;28;20075;-52
2023/03/12 05:18:47;;;;;;;8.48;3.60;;;1.80;99.90;;;;;;5016824;28;20409;-54
2023/03/12 05:21:16;;;;;;;11.00;4.65;;;1.80;99.90;;;;;;5013818;28;20073;-56
2023/03/12 05:23:43;;;;;;;9.65;3.72;;;1.80;99.90;;;;;;5025168;28;20053;-55
2023/03/12 05:26:18;;;;;;;8.38;3.78;;;1.70;99.90;;;;;;5022754;28;20484;-52
2023/03/12 05:28:43;;;;;;;7.00;4.20;;;1.70;99.90;;;;;;5019606;28;20041;-55
2023/03/12 05:31:10;;;;;;;8.52;3.65;;;1.70;99.90;;;;;;5035661;22;20042;-60
2023/03/12 05:33:36;;;;;;;7.45;4.13;;;1.70;99.90;;;;;;5020433;28;20056;-57
2023/03/12 05:36:02;;;;;;;8.55;3.83;;;1.70;99.90;;;;;;5004030;28;20042;-60
2023/03/12 05:38:27;;;;;;;10.65;4.13;;;1.70;99.90;;;;;;5009953;28;20041;-60
2023/03/12 05:40:56;;;;;;;6.03;4.25;;;1.70;99.90;;;;;;5022161;28;20052;-59
2023/03/12 05:43:22;;;;;;;7.15;3.40;;;1.70;99.90;;;;;;5019260;28;20045;-59
2023/03/12 05:45:48;;;;;;;10.50;3.80;;;1.70;99.90;;;;;;5015481;28;20049;-60
2023/03/12 05:48:14;;;;;;;7.15;3.85;;;1.70;99.90;;;;;;5020955;28;20056;-58
2023/03/12 05:50:40;;;;;;;7.45;3.55;;;1.80;99.90;;;;;;5020897;28;20148;-58
2023/03/12 05:53:06;;;;;;;6.70;3.95;;;1.80;99.90;;;;;;5002296;28;20053;-61
2023/03/12 05:55:36;;;;;;;6.05;3.30;;;1.80;99.90;;;;;;5016326;28;20045;-58
2023/03/12 05:58:03;;;;;;;8.82;3.97;;;1.80;99.90;;;;;;5014761;28;20103;-60
2023/03/12 06:00:29;;;;;;;7.40;3.45;;;1.80;99.90;;;;;;5016628;28;20048;-58
2023/03/12 06:02:55;;;;;;;6.65;3.67;;;1.80;99.90;;;;;;5014050;28;20125;-58
2023/03/12 06:05:21;;;;;;;7.65;3.58;;;1.90;99.90;;;;;;5027743;28;20422;-58
2023/03/12 06:07:47;;;;;;;7.63;4.20;;;1.90;99.90;;;;;;5003741;28;20061;-58
2023/03/12 06:10:12;;;;;;;9.57;3.88;;;1.80;99.90;;;;;;5010850;28;20045;-60
2023/03/12 06:12:38;;;;;;;8.98;3.65;;;1.90;99.90;;;;;;5010776;28;20491;-61
2023/03/12 06:15:04;;;;;;;8.20;3.83;;;1.90;99.90;;;;;;5017676;28;20405;-61
2023/03/12 06:17:31;;;;;;;11.32;4.32;;;1.90;99.90;;;;;;4998673;28;20541;-59
2023/03/12 06:19:57;;;;;;;11.15;4.50;;;1.90;99.90;;;;;;5016123;28;20041;-59
2023/03/12 06:22:23;;;;;;;6.95;4.07;;;1.90;99.90;;;;;;5004226;28;20041;-55
2023/03/12 06:24:49;;;;;;;6.93;4.35;;;1.90;99.90;;;;;;4999729;28;20041;-57
2023/03/12 06:27:15;;;;;;;10.70;3.88;;;1.90;99.90;;;;;;4999118;28;20048;-59
2023/03/12 06:29:41;;;;;;;7.63;3.65;;;1.90;99.90;;;;;;5011166;28;20034;-60
2023/03/12 06:32:07;;;;;;;7.80;4.85;;;1.90;99.90;;;;;;5014020;28;20432;-61
2023/03/12 06:34:33;;;;;;;10.00;4.53;;;1.90;99.90;;;;;;5001490;28;20404;-60
2023/03/12 06:37:02;;;;;;;10.18;4.60;;;2.00;99.90;;;;;;5021168;28;20045;-60
2023/03/12 06:39:33;;;;;;;11.20;4.30;;;1.90;99.90;;;;;;5034548;28;20034;-57
2023/03/12 06:41:59;;;;;;;8.40;4.47;;;1.90;99.90;;;;;;5009707;28;20042;-59
2023/03/12 06:44:27;;;;;;;8.55;4.35;;;2.00;99.90;;;;;;5018258;28;20734;-58
2023/03/12 06:46:53;;;;;;;11.43;4.32;;;1.90;99.90;;;;;;5017126;28;20477;-60
2023/03/12 06:49:19;;;;;;;6.57;4.53;;;1.90;99.90;;;;;;5024040;28;20123;-59
2023/03/12 06:51:45;;;;;;;6.82;4.28;;;1.90;99.90;;;;;;5001434;28;20103;-60
2023/03/12 06:54:11;;;;;;;6.70;4.40;;;1.90;99.90;;;;;;5004869;28;20044;-58
2023/03/12 06:56:37;;;;;;;10.05;4.50;;;1.90;99.90;;;;;;5020101;28;20038;-59
2023/03/12 06:59:03;;;;;;;8.00;4.60;;;1.90;99.90;;;;;;5011249;28;20044;-59
2023/03/12 07:01:29;;;;;;;9.65;4.63;;;1.90;99.90;;;;;;5003652;28;20033;-58
2023/03/12 07:03:55;;;;;;;11.60;6.10;;;1.80;99.90;;;;;;5003221;28;20404;-57
2023/03/12 07:06:22;;;;;;;17.35;9.52;;;1.80;99.90;;;;;;5020010;28;20033;-59
2023/03/12 07:08:52;;;;;;;12.68;9.32;;;1.80;99.90;;;;;;5021478;28;20072;-58
2023/03/12 07:11:18;;;;;;;15.75;7.55;;;1.80;99.90;;;;;;5019251;28;20091;-59
2023/03/12 07:13:44;;;;;;;8.63;5.53;;;1.80;99.90;;;;;;5020473;28;20041;-59
2023/03/12 07:16:10;;;;;;;8.05;5.22;;;1.80;99.90;;;;;;5015698;28;20041;-58
2023/03/12 07:18:36;;;;;;;11.63;5.30;;;1.80;99.90;;;;;;5009906;28;20462;-58
2023/03/12 07:21:02;;;;;;;9.18;5.68;;;1.80;99.90;;;;;;5029407;28;20041;-58
2023/03/12 07:23:28;;;;;;;9.60;6.13;;;1.70;99.90;;;;;;5010595;28;20554;-59
2023/03/12 07:25:54;;;;;;;17.73;8.88;;;1.70;99.90;;;;;;5007429;28;20037;-59
2023/03/12 07:28:20;;;;;;;10.75;5.72;;;1.70;99.90;;;;;;5012847;28;20483;-59
2023/03/12 07:30:49;;;;;;;10.70;6.30;;;1.70;99.90;;;;;;5023581;28;20463;-59
2023/03/12 07:33:20;;;;;;;11.02;5.53;;;1.70;99.90;;;;;;5019931;28;20076;-59
2023/03/12 07:35:47;;;;;;;13.30;5.97;;;1.70;99.90;;;;;;5018796;28;20045;-58
2023/03/12 07:38:13;;;;;;;8.70;5.75;;;1.70;99.90;;;;;;5025237;28;20396;-55
2023/03/12 07:40:39;;;;;;;9.63;5.85;;;1.70;99.90;;;;;;4991660;28;20214;-58
2023/03/12 07:43:11;;;;;;;15.45;6.45;;;1.70;99.90;;;;;;5006974;28;20033;-60
2023/03/12 07:45:38;;;;;;;11.57;5.85;;;1.70;99.90;;;;;;5002597;28;20519;-59
2023/03/12 07:48:06;;;;;;;8.30;5.53;;;1.70;99.90;;;;;;5021102;28;20488;-58
2023/03/12 07:50:33;;;;;;;11.65;6.47;;;1.80;99.90;;;;;;5008878;28;20453;-60
2023/03/12 07:52:59;;;;;;;9.95;6.25;;;1.80;99.90;;;;;;5013071;28;20288;-60
2023/03/12 07:55:25;;;;;;;11.00;5.80;;;1.70;99.90;;;;;;5018790;28;20049;-59
2023/03/12 07:57:50;;;;;;;11.63;6.13;;;1.70;99.90;;;;;;5021646;28;20041;-60
2023/03/12 08:00:16;;;;;;;15.85;6.75;;;1.70;99.90;;;;;;5024203;28;20093;-57
2023/03/12 08:02:42;;;;;;;9.60;6.35;;;1.70;99.90;;;;;;5021682;28;20046;-58
2023/03/12 08:05:09;;;;;;;10.18;7.60;;;1.80;99.90;;;;;;5013783;28;20077;-59
2023/03/12 08:07:35;;;;;;;10.20;6.82;;;1.80;99.90;;;;;;5015853;28;20077;-56
2023/03/12 08:10:06;;;;;;;12.82;6.70;;;1.80;99.90;;;;;;5002054;28;20104;-58
2023/03/12 08:12:32;;;;;;;12.55;6.60;;;1.80;99.90;;;;;;5007058;28;20085;-59
2023/03/12 08:14:58;;;;;;;13.50;7.20;;;1.80;99.90;;;;;;5008124;28;20247;-56
2023/03/12 08:17:24;;;;;;;13.07;7.88;;;1.80;99.90;;;;;;5017419;28;20129;-58
2023/03/12 08:19:52;;;;;;;15.02;8.18;;;1.80;99.90;;;;;;5015983;28;20060;-59
2023/03/12 08:22:18;;;;;;;15.40;7.65;;;1.90;99.90;;;;;;5000203;28;20533;-59
2023/03/12 08:24:44;;;;;;;11.00;7.07;;;1.90;99.90;;;;;;5020952;28;20072;-57
2023/03/12 08:27:11;;;;;;;9.30;7.05;;;1.90;99.90;;;;;;5011266;28;20037;-60
2023/03/12 08:29:37;;;;;;;14.57;7.35;;;1.90;99.90;;;;;;5003672;28;20647;-59
2023/03/12 08:32:03;;;;;;;13.23;8.07;;;1.90;99.90;;;;;;5001335;28;20053;-60
2023/03/12 08:34:29;;;;;;;14.65;7.50;;;2.00;99.90;;;;;;5015864;28;20041;-60
2023/03/12 08:36:57;;;;;;;13.05;7.70;;;2.00;99.90;;;;;;5016538;28;20053;-59
2023/03/12 08:39:23;;;;;;;11.05;8.20;;;2.00;99.90;;;;;;4986708;28;20046;-59
2023/03/12 08:41:50;;;;;;;13.30;7.88;;;2.00;99.90;;;;;;5014465;28;20051;-59
2023/03/12 08:44:16;;;;;;;13.18;9.00;;;2.00;99.90;;;;;;5021378;28;20049;-60
2023/03/12 08:46:46;;;;;;;14.75;10.18;;;2.00;99.90;;;;;;5007294;28;20511;-60
2023/03/12 08:49:12;;;;;;;13.10;9.02;;;2.00;99.90;;;;;;5021449;28;20037;-61
2023/03/12 08:51:38;;;;;;;12.15;8.77;;;2.00;99.90;;;;;;5025592;28;20520;-59
2023/03/12 08:54:04;;;;;;;16.23;9.32;;;2.00;99.90;;;;;;5015808;28;20306;-59
2023/03/12 08:56:31;;;;;;;13.32;8.95;;;2.00;99.90;;;;;;5013048;28;20056;-56
2023/03/12 08:58:59;;;;;;;15.48;9.20;;;2.00;99.90;;;;;;5007473;28;20243;-58
2023/03/12 09:01:25;;;;;;;14.93;9.35;;;2.10;99.90;;;;;;5006593;28;20088;-59
2023/03/12 09:03:54;;;;;;;13.98;8.45;;;2.10;99.90;;;;;;5020658;28;20085;-59
2023/03/12 09:06:20;;;;;;;14.23;9.07;;;2.10;99.90;;;;;;5007157;28;20056;-59
2023/03/12 09:08:50;;;;;;;12.35;8.25;;;2.10;99.90;;;;;;5019761;28;20128;-59
2023/03/12 09:11:16;;;;;;;14.38;9.30;;;2.20;99.90;;;;;;5013818;28;20053;-58
2023/03/12 09:13:42;;;;;;;12.75;8.90;;;2.10;99.90;;;;;;4990477;28;20069;-58
2023/03/12 09:16:08;;;;;;;18.42;9.63;;;2.20;99.90;;;;;;5009971;28;20053;-59
2023/03/12 09:18:34;;;;;;;13.18;9.35;;;2.20;99.90;;;;;;5021018;28;20037;-59
2023/03/12 09:21:06;;;;;;;13.40;9.32;;;2.20;99.90;;;;;;5004027;28;20060;-58
2023/03/12 09:23:32;;;;;;;13.55;9.25;;;2.20;99.90;;;;;;5008033;28;20045;-59
2023/03/12 09:25:58;;;;;;;15.18;9.63;;;2.20;99.90;;;;;;5017119;28;20083;-60
2023/03/12 09:28:24;;;;;;;14.10;9.82;;;2.20;99.90;;;;;;5000157;28;20053;-60
2023/03/12 09:30:50;;;;;;;13.63;9.27;;;2.30;99.90;;;;;;5005412;28;20056;-59
2023/03/12 09:33:16;;;;;;;14.02;9.32;;;2.20;99.90;;;;;;5020821;28;20034;-56
2023/03/12 09:35:43;;;;;;;15.13;9.77;;;2.20;99.90;;;;;;5006389;28;20060;-58
2023/03/12 09:38:14;;;;;;;15.88;11.10;;;2.30;99.90;;;;;;5019820;28;20034;-60
2023/03/12 09:40:45;;;;;;;15.80;10.23;;;2.30;99.90;;;;;;5016055;28;20084;-59
2023/03/12 09:43:20;;;;;;;15.05;10.00;;;2.30;99.90;;;;;;5014017;28;20051;-59
2023/03/12 09:45:48;;;;;;;13.57;9.60;;;2.30;99.90;;;;;;5028607;28;20080;-60
2023/03/12 09:48:17;;;;;;;13.63;9.13;;;2.40;99.90;;;;;;4999567;28;20128;-56
2023/03/12 09:50:47;;;;;;;12.55;8.85;;;2.40;99.90;;;;;;5016910;28;20507;-59
2023/03/12 09:53:28;;;;;;;12.45;9.40;;;2.50;99.90;;;;;;5018944;28;20239;-58
2023/03/12 09:55:56;;;;;;;14.02;8.98;;;2.50;99.90;;;;;;5015830;28;20049;-54
2023/03/12 09:58:32;;;;;;;11.43;9.32;;;2.50;99.90;;;;;;5006932;28;20151;-60
2023/03/12 10:01:07;;;;;;;14.98;9.40;;;2.50;99.90;;;;;;5009859;28;20512;-60
2023/03/12 10:03:32;;;;;;;12.82;8.63;;;2.60;99.90;;;;;;5016323;28;20041;-58
2023/03/12 10:06:28;;;;;;;12.52;9.52;;;2.60;99.90;;;;;;5024688;28;20500;-58
2023/03/12 10:09:33;;;;;;;15.05;9.98;;;2.70;99.90;;;;;;4996305;28;20084;-60
2023/03/12 10:12:27;;;;;;;14.98;9.50;;;2.70;99.90;;;;;;5009610;28;20081;-58
2023/03/12 10:15:34;;;;;;;13.82;9.73;;;2.70;99.90;;;;;;5015995;28;20528;-60
2023/03/12 10:18:38;;;;;;;13.30;9.00;;;2.80;99.90;;;;;;4989913;28;20370;-60
2023/03/12 10:21:27;;;;;;;11.85;9.00;;;2.80;99.90;;;;;;4926762;28;20101;-57
2023/03/12 10:24:40;;;;;;;15.27;9.60;;;2.90;99.90;;;;;;4919321;28;20089;-59
2023/03/12 10:27:17;;;;;;;16.35;9.93;;;2.90;99.90;;;;;;4897193;29;20134;-59
2023/03/12 10:29:47;;;;;;;15.73;9.90;;;3.00;99.90;;;;;;4915998;29;20050;-59
2023/03/12 10:32:19;;;;;;;17.10;10.15;;;3.00;99.90;;;;;;4967381;28;20377;-59
2023/03/12 10:35:02;;;;;;;15.07;9.82;;;3.00;99.90;;;;;;5014724;28;20539;-59
2023/03/12 10:37:37;;;;;;;13.88;10.90;;;3.10;99.90;;;;;;5005714;28;20075;-60
2023/03/12 10:40:04;;;;;;;14.98;10.63;;;3.10;99.90;;;;;;4994428;28;20067;-56
2023/03/12 10:42:31;;;;;;;17.73;11.63;;;3.10;99.90;;;;;;4999535;28;20092;-60
2023/03/12 10:44:58;;;;;;;21.67;13.52;;;3.20;99.90;;;;;;5012333;28;20069;-60
2023/03/12 10:47:30;;;;;;;20.80;12.13;;;3.30;99.90;;;;;;5010869;28;20029;-60
2023/03/12 10:50:10;;;;;;;16.42;12.00;;;3.30;99.90;;;;;;5013201;28;20078;-57
2023/03/12 10:52:36;;;;;;;16.27;11.63;;;3.40;99.90;;;;;;5022701;28;20083;-58
2023/03/12 10:55:31;;;;;;;20.00;13.20;;;3.40;99.90;;;;;;5007265;28;20440;-58
2023/03/12 10:58:02;;;;;;;20.80;12.68;;;3.50;99.90;;;;;;5012294;28;20125;-61
2023/03/12 11:00:31;;;;;;;19.30;13.35;;;3.60;99.90;;;;;;5016444;28;20361;-60
2023/03/12 11:03:04;;;;;;;22.92;14.65;;;3.70;99.90;;;;;;5015878;28;20045;-60
2023/03/12 11:05:44;;;;;;;25.40;15.38;;;3.80;99.90;;;;;;5010555;28;20117;-59
2023/03/12 11:08:22;;;;;;;23.67;14.27;;;3.90;99.90;;;;;;5001666;28;20517;-58
2023/03/12 11:10:51;;;;;;;20.88;14.73;;;3.90;99.90;;;;;;5022522;28;20500;-61
2023/03/12 11:13:22;;;;;;;18.80;13.88;;;4.00;99.90;;;;;;5008520;28;20078;-61
2023/03/12 11:15:50;;;;;;;21.60;14.88;;;4.00;99.90;;;;;;5004730;28;20098;-61
2023/03/12 11:18:29;;;;;;;23.83;14.80;;;4.10;99.90;;;;;;5018289;28;20064;-61
2023/03/12 11:21:15;;;;;;;22.67;14.13;;;4.10;99.90;;;;;;5026536;28;20163;-61
2023/03/12 11:23:56;;;;;;;22.02;14.80;;;4.20;99.90;;;;;;5009660;28;20084;-61
2023/03/12 11:26:24;;;;;;;26.00;15.77;;;4.30;99.90;;;;;;5008845;28;20052;-61
2023/03/12 11:28:57;;;;;;;27.73;16.13;;;4.40;99.90;;;;;;5010455;28;20566;-61
2023/03/12 11:31:50;;;;;;;21.77;15.93;;;4.50;99.90;;;;;;5018641;28;20045;-60
2023/03/12 11:34:23;;;;;;;27.17;17.35;;;4.60;99.90;;;;;;5018610;23;20072;-52
2023/03/12 11:36:49;;;;;;;25.90;17.58;;;4.70;99.90;;;;;;5011242;28;20485;-55
2023/03/12 11:39:36;;;;;;;25.92;17.23;;;4.70;99.90;;;;;;5010451;28;20046;-53
2023/03/12 11:42:11;;;;;;;26.50;17.67;;;4.80;99.90;;;;;;5017803;28;20081;-55
2023/03/12 11:45:13;;;;;;;21.75;16.23;;;4.80;99.90;;;;;;4984718;28;20042;-52
2023/03/12 11:47:48;;;;;;;31.27;18.80;;;4.80;99.90;;;;;;5007371;28;20124;-56
2023/03/12 11:50:54;;;;;;;22.42;15.82;;;4.90;99.90;;;;;;5000884;28;20057;-54
2023/03/12 11:54:02;;;;;;;26.33;17.27;;;4.90;99.90;;;;;;5007623;28;20037;-56
2023/03/12 11:56:52;;;;;;;31.35;16.38;;;5.00;99.90;;;;;;4998813;28;20041;-53
2023/03/12 11:59:48;;;;;;;24.90;17.08;;;5.00;99.90;;;;;;5008888;28;20041;-55
2023/03/12 12:02:32;;;;;;;26.40;18.88;;;5.10;99.90;;;;;;5000545;28;20046;-57
2023/03/12 12:05:01;;;;;;;26.58;18.15;;;5.10;99.90;;;;;;4983189;28;20100;-56
2023/03/12 12:08:03;;;;;;;30.88;19.67;;;5.20;99.90;;;;;;5025750;28;20068;-55
2023/03/12 12:10:51;;;;;;;28.60;17.90;;;5.30;99.90;;;;;;5028078;28;20100;-57
2023/03/12 12:13:26;;;;;;;33.13;19.75;;;5.40;99.90;;;;;;4990657;28;20556;-57
2023/03/12 12:16:06;;;;;;;35.80;19.83;;;5.50;99.90;;;;;;5003690;28;20050;-55
2023/03/12 12:19:17;;;;;;;31.95;18.85;;;5.60;99.90;;;;;;5011392;28;20061;-54
2023/03/12 12:21:59;;;;;;;38.95;19.00;;;5.80;99.90;;;;;;5002225;28;20070;-52
2023/03/12 12:24:37;;;;;;;39.30;19.33;;;6.00;99.90;;;;;;5024555;28;20042;-56
2023/03/12 12:27:25;;;;;;;42.80;20.75;;;6.10;99.90;;;;;;5010055;28;20500;-52
2023/03/12 12:30:09;;;;;;;45.97;21.63;;;6.30;99.90;;;;;;4981665;28;20527;-54
2023/03/12 12:32:40;;;;;;;42.08;18.38;;;6.50;99.90;;;;;;4993307;28;20061;-55
2023/03/12 12:35:06;;;;;;;51.40;17.80;;;6.60;99.90;;;;;;4988462;28;20053;-55
2023/03/12 12:37:37;;;;;;;41.33;14.77;;;6.80;99.90;;;;;;4982188;28;20046;-56
2023/03/12 12:40:09;;;;;;;43.88;13.55;;;7.00;99.90;;;;;;5002405;28;20411;-56
2023/03/12 12:42:48;;;;;;;46.47;12.98;;;7.20;99.90;;;;;;5002535;28;20320;-55
2023/03/12 12:45:17;;;;;;;43.92;12.40;;;7.40;99.90;;;;;;4997113;28;20505;-54
2023/03/12 12:47:54;;;;;;;50.95;13.52;;;7.60;99.90;;;;;;4981398;28;20042;-54
2023/03/12 12:50:24;;;;;;;42.33;12.20;;;7.70;99.90;;;;;;5022852;28;20077;-53
2023/03/12 12:53:20;;;;;;;41.95;12.45;;;7.80;99.90;;;;;;4986825;28;20038;-54
2023/03/12 12:56:01;;;;;;;38.05;10.13;;;7.90;99.90;;;;;;4981733;28;20514;-53
2023/03/12 12:58:55;;;;;;;42.47;9.25;;;8.00;99.90;;;;;;5010504;28;20131;-55
2023/03/12 13:01:21;;;;;;;42.33;10.67;;;8.20;99.90;;;;;;5008533;28;20638;-56
2023/03/12 13:03:48;;;;;;;40.78;9.80;;;8.30;99.90;;;;;;5018319;28;20351;-56
2023/03/12 13:06:14;;;;;;;38.88;10.13;;;8.40;99.90;;;;;;5003502;28;20108;-53